Time;durP1;ratioP1;P1;durP2;ratioP2;P2;SDS_P1;SDS_P2;PMS_P1;PMS_P2;Temp;Humidity;BMP_temperature;BMP_pressure;BME280_temperature;BME280_humidity;BME280_pressure;Samples;Min_cycle;Max_cycle;Signal;HPM_P1;HPM_P2
2023/07/23 00:04:45;;;;;;;3.87;3.43;;;;;;;20.77;49.50;98799.63;7211133;40;20371;31
2023/07/23 00:10:05;;;;;;;4.15;3.20;;;;;;;20.74;47.73;98811.06;7205114;40;20240;31
2023/07/23 00:15:23;;;;;;;3.80;3.30;;;;;;;20.59;49.25;98808.81;7221644;40;20356;31
2023/07/23 00:20:53;;;;;;;6.95;3.12;;;;;;;20.52;48.41;98802.66;7214743;40;20257;31
2023/07/23 00:26:27;;;;;;;7.73;3.37;;;;;;;20.48;48.89;98805.06;7158873;40;20277;31
2023/07/23 00:32:00;;;;;;;5.80;3.47;;;;;;;20.49;48.88;98803.16;7173050;40;20252;31
2023/07/23 00:37:33;;;;;;;4.25;3.10;;;;;;;20.53;50.45;98796.94;7174731;40;20309;31
2023/07/23 00:43:10;;;;;;;4.70;3.20;;;;;;;20.46;49.14;98812.66;7163825;40;20282;31
2023/07/23 00:53:49;;;;;;;3.00;2.70;;;;;;;20.22;49.59;98800.03;7214884;40;20818;31
2023/07/23 00:59:25;;;;;;;4.32;2.85;;;;;;;20.12;50.08;98799.78;7210891;40;20273;31
2023/07/23 01:05:00;;;;;;;6.25;3.40;;;;;;;20.06;49.95;98803.47;7230072;40;20273;31
2023/07/23 01:15:40;;;;;;;4.40;3.30;;;;;;;19.86;51.53;98781.09;7236420;40;20704;31
2023/07/23 01:21:00;;;;;;;4.47;3.33;;;;;;;19.85;51.57;98779.44;7225351;40;20304;31
2023/07/23 01:26:33;;;;;;;3.73;3.43;;;;;;;19.76;51.26;98774.31;7286801;40;20268;31
2023/07/23 01:31:53;;;;;;;4.40;3.93;;;;;;;19.65;52.15;98774.31;7244467;40;20257;31
2023/07/23 01:37:25;;;;;;;4.80;3.35;;;;;;;19.57;51.74;98772.72;7233924;40;20352;31
2023/07/23 01:43:01;;;;;;;4.20;3.40;;;;;;;19.48;51.74;98765.97;7231981;40;20246;31
2023/07/23 01:48:34;;;;;;;5.23;3.67;;;;;;;19.39;52.63;98753.66;7201212;40;20250;31
2023/07/23 01:54:06;;;;;;;4.43;3.30;;;;;;;19.34;53.24;98754.34;7244593;40;20257;31
2023/07/23 01:59:42;;;;;;;4.00;3.30;;;;;;;19.25;53.38;98754.91;7156311;40;20255;31
2023/07/23 02:05:03;;;;;;;3.90;3.30;;;;;;;19.24;52.83;98751.34;7095828;40;20367;31
2023/07/23 02:10:23;;;;;;;4.10;3.30;;;;;;;18.90;54.23;98746.59;7115359;40;20324;31
2023/07/23 02:15:57;;;;;;;5.05;3.90;;;;;;;18.56;55.33;98742.59;7144141;40;20329;31
2023/07/23 02:21:33;;;;;;;5.80;3.77;;;;;;;18.58;55.02;98740.50;7183934;40;20270;31
2023/07/23 02:27:08;;;;;;;6.60;3.43;;;;;;;18.63;54.99;98742.53;7201600;40;20269;31
2023/07/23 02:32:44;;;;;;;5.33;3.47;;;;;;;18.50;55.82;98743.50;7186538;40;20262;31
2023/07/23 02:38:19;;;;;;;5.07;3.43;;;;;;;18.47;55.30;98746.72;7194572;40;20250;31
2023/07/23 02:43:39;;;;;;;4.75;3.60;;;;;;;18.56;55.04;98753.53;7186732;40;20254;31
2023/07/23 02:49:15;;;;;;;6.33;3.60;;;;;;;18.58;54.97;98745.13;7219115;40;20310;31
2023/07/23 02:54:35;;;;;;;4.90;3.50;;;;;;;18.55;55.39;98749.16;7163579;40;20492;31
2023/07/23 02:59:55;;;;;;;4.20;3.80;;;;;;;18.55;54.71;98748.31;7208287;40;20247;31
2023/07/23 03:05:26;;;;;;;4.20;3.80;;;;;;;18.64;54.73;98755.97;7220702;40;20253;31
2023/07/23 03:10:46;;;;;;;4.50;4.00;;;;;;;18.65;55.32;98760.34;7256912;40;20252;31
2023/07/23 03:16:21;;;;;;;7.35;3.50;;;;;;;18.73;55.36;98770.16;7214632;40;20348;31
2023/07/23 03:21:57;;;;;;;4.37;2.97;;;;;;;18.76;55.12;98756.84;7235087;40;20393;31
2023/07/23 03:27:32;;;;;;;3.50;3.20;;;;;;;18.94;53.90;98760.63;7213011;40;20399;31
2023/07/23 03:33:05;;;;;;;3.75;2.85;;;;;;;19.03;54.37;98759.22;7167314;40;20269;31
2023/07/23 03:38:41;;;;;;;4.73;2.80;;;;;;;19.26;54.10;98759.31;7196836;40;20353;31
2023/07/23 03:44:16;;;;;;;3.90;3.00;;;;;;;19.39;53.21;98769.22;7165093;40;20250;31
2023/07/23 03:49:51;;;;;;;4.60;3.00;;;;;;;19.49;52.55;98769.50;7172792;40;20394;31
2023/07/23 03:55:25;;;;;;;3.23;2.73;;;;;;;19.55;51.96;98768.56;7204185;40;20289;31
2023/07/23 04:01:01;;;;;;;3.00;2.70;;;;;;;19.64;51.71;98767.16;7174458;40;20270;31
2023/07/23 04:06:36;;;;;;;5.33;2.93;;;;;;;19.60;52.52;98761.34;7155912;40;20259;31
2023/07/23 04:12:09;;;;;;;3.20;2.70;;;;;;;19.63;52.03;98766.31;7223850;40;20280;31
2023/07/23 04:22:31;;;;;;;3.23;2.73;;;;;;;19.72;52.29;98772.28;7221239;40;20277;31
2023/07/23 04:28:04;;;;;;;3.15;2.80;;;;;;;19.70;52.66;98777.16;7236719;40;20260;31
2023/07/23 04:33:24;;;;;;;4.00;2.70;;;;;;;19.74;51.84;98768.25;7167479;40;20419;31
2023/07/23 04:39:00;;;;;;;4.60;2.90;;;;;;;19.78;51.53;98769.44;7180307;40;20265;31
2023/07/23 04:44:36;;;;;;;3.63;2.73;;;;;;;19.84;52.59;98777.75;7229940;40;20312;31
2023/07/23 04:50:11;;;;;;;3.40;2.60;;;;;;;19.89;52.29;98764.19;7221133;40;20274;31
2023/07/23 05:00:51;;;;;;;3.37;2.80;;;;;;;20.02;52.88;98767.53;7208828;40;20269;31
2023/07/23 05:11:30;;;;;;;4.78;3.05;;;;;;;20.14;51.07;98757.41;7251556;40;20278;31
2023/07/23 05:22:10;;;;;;;3.10;2.40;;;;;;;20.23;53.00;98763.38;7251255;40;20469;31
2023/07/23 05:27:45;;;;;;;3.10;2.17;;;;;;;20.29;51.99;98758.84;7196997;40;20444;31
2023/07/23 05:33:20;;;;;;;3.55;2.20;;;;;;;20.35;53.62;98758.75;7176579;40;20265;31
2023/07/23 05:38:56;;;;;;;3.23;2.17;;;;;;;20.40;52.44;98771.72;7156515;40;20251;31
2023/07/23 05:44:17;;;;;;;2.57;2.00;;;;;;;20.52;53.19;98770.62;7146481;40;20270;31
2023/07/23 05:54:58;;;;;;;3.00;2.00;;;;;;;20.58;53.13;98779.78;7235235;40;20267;31
2023/07/23 06:00:30;;;;;;;3.30;1.80;;;;;;;20.56;53.19;98774.56;7194922;40;20270;31
2023/07/23 06:06:05;;;;;;;2.60;1.65;;;;;;;20.57;53.45;98784.44;7209541;40;20417;31
2023/07/23 06:11:40;;;;;;;3.85;2.00;;;;;;;20.61;54.22;98776.56;7217344;40;20262;31
2023/07/23 06:16:59;;;;;;;2.80;1.70;;;;;;;20.94;52.53;98778.59;7155196;40;21601;31
2023/07/23 06:22:34;;;;;;;2.87;1.70;;;;;;;21.29;53.79;98781.22;6954320;40;22008;31
2023/07/23 06:28:10;;;;;;;1.60;1.50;;;;;;;21.44;52.60;98774.13;7126674;40;20387;31
2023/07/23 06:33:28;;;;;;;2.35;1.50;;;;;;;21.67;52.50;98786.06;7152434;40;20396;31
2023/07/23 06:39:00;;;;;;;2.55;1.75;;;;;;;21.83;52.92;98777.81;7233888;40;20277;31
2023/07/23 06:44:36;;;;;;;2.28;1.70;;;;;;;22.03;53.31;98777.34;7192602;40;20257;31
2023/07/23 06:49:55;;;;;;;1.70;1.37;;;;;;;22.18;52.88;98774.00;7182210;40;21329;31
2023/07/23 06:55:15;;;;;;;1.67;1.40;;;;;;;22.22;52.84;98781.47;7221077;40;20258;31
2023/07/23 07:00:47;;;;;;;2.45;1.65;;;;;;;22.25;53.54;98786.47;7197676;40;20353;31
2023/07/23 07:06:05;;;;;;;4.25;1.40;;;;;;;22.33;53.29;98782.47;7172032;40;20269;31
2023/07/23 07:11:22;;;;;;;1.58;1.48;;;;;;;22.50;52.85;98788.75;7214900;40;20264;31
2023/07/23 07:16:58;;;;;;;2.67;1.67;;;;;;;22.47;53.03;98790.09;7220413;40;20249;31
2023/07/23 07:22:15;;;;;;;1.50;1.37;;;;;;;22.48;53.25;98789.00;7288748;39;20249;31
2023/07/23 07:27:32;;;;;;;2.83;1.60;;;;;;;22.41;52.51;98777.38;7308205;39;20396;31
2023/07/23 07:33:06;;;;;;;1.90;1.60;;;;;;;22.32;53.35;98780.81;7266033;39;20378;31
2023/07/23 07:38:38;;;;;;;1.90;1.70;;;;;;;22.29;53.75;98778.56;7248724;40;20273;31
2023/07/23 07:44:10;;;;;;;2.47;1.70;;;;;;;22.26;52.92;98774.41;7174361;40;20270;31
2023/07/23 07:49:43;;;;;;;1.67;1.50;;;;;;;22.32;53.31;98773.41;7152677;40;20368;31
2023/07/23 08:00:17;;;;;;;2.20;1.45;;;;;;;22.43;53.46;98782.59;7148991;40;20331;31
2023/07/23 08:10:54;;;;;;;2.72;1.80;;;;;;;22.56;53.41;98762.16;7202224;40;20269;31
2023/07/23 08:16:26;;;;;;;2.00;1.50;;;;;;;22.62;52.91;98772.97;7294484;39;20368;31
2023/07/23 08:22:01;;;;;;;1.90;1.70;;;;;;;22.69;53.36;98764.53;7274118;40;20323;31
2023/07/23 08:27:34;;;;;;;1.95;1.60;;;;;;;22.96;52.59;98765.47;7217116;40;20359;31
2023/07/23 08:33:06;;;;;;;4.18;1.60;;;;;;;23.45;51.58;98762.72;7201321;40;20265;31
2023/07/23 08:43:48;;;;;;;4.05;1.55;;;;;;;23.74;51.10;98745.63;7181535;40;21205;31
2023/07/23 08:49:18;;;;;;;3.25;1.87;;;;;;;23.71;51.79;98781.13;7234292;39;21141;31
2023/07/23 08:59:58;;;;;;;2.30;1.73;;;;;;;23.80;51.24;98765.78;7231274;40;21055;31
2023/07/23 09:10:34;;;;;;;5.53;1.60;;;;;;;23.54;50.64;98772.16;7243897;40;21146;31
2023/07/23 09:16:09;;;;;;;2.20;1.80;;;;;;;23.49;50.91;98766.59;7275637;40;20321;31
2023/07/23 09:21:44;;;;;;;2.37;1.83;;;;;;;23.85;49.83;98752.06;7252918;40;20363;31
2023/07/23 09:32:37;;;;;;;2.28;1.65;;;;;;;24.67;49.15;98734.97;7265328;40;20278;31
2023/07/23 09:43:16;;;;;;;2.13;1.80;;;;;;;24.98;46.25;98741.44;7197696;40;20549;31
2023/07/23 09:48:52;;;;;;;1.75;1.65;;;;;;;25.02;47.01;98759.94;7212914;40;20265;31
2023/07/23 09:54:27;;;;;;;1.90;1.60;;;;;;;25.19;45.85;98758.91;7244346;40;20455;31
2023/07/23 10:00:02;;;;;;;2.10;1.80;;;;;;;25.49;44.17;98765.28;7259451;40;20261;31
2023/07/23 10:05:38;;;;;;;2.97;1.80;;;;;;;25.27;43.16;98756.44;7213718;40;20264;31
2023/07/23 10:10:58;;;;;;;4.07;1.80;;;;;;;25.36;43.98;98765.03;7195194;40;20348;31
2023/07/23 10:16:34;;;;;;;2.47;2.00;;;;;;;25.23;43.43;98771.06;7232411;40;20268;31
2023/07/23 10:22:10;;;;;;;2.90;1.97;;;;;;;25.27;43.51;98756.44;7193396;40;20264;31
2023/07/23 10:27:45;;;;;;;6.53;2.40;;;;;;;25.78;43.30;98745.47;7203548;40;20258;31
2023/07/23 10:33:45;;;;;;;3.70;2.23;;;;;;;26.14;42.37;98738.00;7226390;40;20363;31
2023/07/23 10:39:22;;;;;;;2.76;1.86;;;;;;;26.16;42.40;98746.81;7244504;40;20316;31
2023/07/23 10:44:56;;;;;;;2.25;2.00;;;;;;;26.20;41.77;98725.81;7222847;40;20336;31
2023/07/23 10:50:31;;;;;;;2.28;1.67;;;;;;;26.32;41.73;98741.03;7233099;40;20269;31
2023/07/23 10:56:04;;;;;;;2.00;1.74;;;;;;;26.26;40.99;98717.28;7193725;40;20285;31
2023/07/23 11:01:36;;;;;;;3.33;1.77;;;;;;;26.30;40.55;98723.06;7175029;40;20377;31
2023/07/23 11:12:16;;;;;;;2.65;1.70;;;;;;;26.15;41.40;98723.91;7152333;40;21337;31
2023/07/23 11:22:56;;;;;;;2.72;1.90;;;;;;;26.11;40.25;98725.56;7306225;39;21657;31
2023/07/23 11:33:33;;;;;;;6.28;1.90;;;;;;;26.11;40.22;98714.50;7252631;39;20940;31
2023/07/23 11:39:07;;;;;;;2.05;1.85;;;;;;;26.50;40.21;98705.59;7212364;40;20288;31
2023/07/23 11:44:42;;;;;;;2.95;2.20;;;;;;;26.60;40.34;98711.06;7172136;40;20277;31
2023/07/23 11:50:16;;;;;;;4.40;2.08;;;;;;;26.66;39.71;98709.97;7177183;40;20438;31
2023/07/23 11:55:51;;;;;;;2.10;1.75;;;;;;;26.58;40.09;98708.62;7233140;40;20257;31
2023/07/23 12:01:26;;;;;;;2.35;1.90;;;;;;;26.46;39.32;98702.56;7223813;40;20449;31
2023/07/23 12:07:02;;;;;;;2.40;2.02;;;;;;;26.41;39.53;98694.31;7215479;40;20269;31
2023/07/23 12:12:23;;;;;;;2.40;2.00;;;;;;;26.42;39.79;98694.00;7203290;40;20273;31
2023/07/23 12:17:57;;;;;;;2.90;2.15;;;;;;;26.32;40.33;98699.59;7195222;40;20262;31
2023/07/23 12:23:30;;;;;;;7.37;2.40;;;;;;;26.34;39.96;98679.94;7171734;40;20258;31
2023/07/23 12:29:05;;;;;;;2.20;2.00;;;;;;;26.54;40.16;98676.28;7222853;40;20262;31
2023/07/23 12:34:23;;;;;;;2.50;2.10;;;;;;;26.99;39.85;98669.69;7215473;40;20266;31
2023/07/23 12:39:55;;;;;;;2.53;2.20;;;;;;;27.24;39.20;98662.06;7226737;40;20292;31
2023/07/23 12:45:15;;;;;;;3.48;2.34;;;;;;;27.02;40.23;98658.91;7176668;40;20278;31
2023/07/23 12:50:50;;;;;;;2.50;2.10;;;;;;;26.93;39.87;98659.78;7220997;40;20349;31
2023/07/23 12:56:23;;;;;;;4.00;2.40;;;;;;;26.79;40.26;98651.25;7224984;40;20254;31
2023/07/23 13:01:44;;;;;;;3.25;2.20;;;;;;;26.65;38.92;98658.53;7220580;40;20321;31
2023/07/23 13:07:01;;;;;;;3.70;2.55;;;;;;;26.69;39.70;98656.84;7192703;40;20352;31
2023/07/23 13:17:36;;;;;;;3.75;2.55;;;;;;;26.99;39.51;98665.00;7200666;40;21092;31
2023/07/23 13:22:54;;;;;;;5.02;2.72;;;;;;;26.97;39.49;98666.41;7219244;40;20266;31
2023/07/23 13:28:28;;;;;;;5.60;2.97;;;;;;;26.64;39.41;98678.97;7079781;40;20237;31
2023/07/23 13:34:02;;;;;;;2.75;2.45;;;;;;;26.61;39.48;98661.03;7278595;40;20375;31
2023/07/23 13:39:37;;;;;;;2.97;2.58;;;;;;;26.68;39.52;98671.81;7252295;40;20446;31
2023/07/23 13:44:58;;;;;;;3.05;2.47;;;;;;;26.72;39.48;98653.53;7250037;40;20295;31
2023/07/23 13:50:34;;;;;;;2.90;2.40;;;;;;;26.84;40.54;98654.84;7207513;40;20262;31
2023/07/23 13:55:54;;;;;;;3.05;2.70;;;;;;;26.84;40.02;98646.53;7236171;40;20425;31
2023/07/23 14:01:11;;;;;;;3.83;2.67;;;;;;;26.79;40.57;98641.03;7230207;40;20477;31
2023/07/23 14:06:44;;;;;;;3.10;2.60;;;;;;;26.66;40.16;98654.66;7214274;40;20401;31
2023/07/23 14:17:23;;;;;;;4.45;2.80;;;;;;;26.43;40.26;98656.12;7234901;40;20266;31
2023/07/23 14:22:57;;;;;;;3.40;2.55;;;;;;;26.48;39.92;98645.06;7176476;40;20361;31
2023/07/23 14:28:14;;;;;;;3.22;2.46;;;;;;;26.63;39.63;98638.63;7133028;40;20447;31
2023/07/23 14:33:34;;;;;;;5.13;2.60;;;;;;;26.79;39.83;98642.97;7140502;40;20258;31
2023/07/23 14:39:10;;;;;;;5.03;2.23;;;;;;;26.79;39.83;98638.25;7169263;40;20250;31
2023/07/23 14:44:27;;;;;;;3.30;2.25;;;;;;;26.74;40.15;98615.34;7201815;40;20264;31
2023/07/23 14:49:59;;;;;;;6.55;3.37;;;;;;;26.69;39.85;98621.72;7269061;40;20256;31
2023/07/23 14:55:33;;;;;;;3.15;2.80;;;;;;;26.61;40.16;98622.31;7253692;40;20307;31
2023/07/23 15:01:05;;;;;;;2.78;2.53;;;;;;;26.63;40.80;98627.56;7213897;40;20250;31
2023/07/23 15:06:22;;;;;;;8.10;3.28;;;;;;;26.67;41.33;98620.38;7194563;40;20338;31
2023/07/23 15:11:59;;;;;;;4.80;2.50;;;;;;;26.71;40.79;98613.16;7214414;40;20257;31
2023/07/23 15:17:17;;;;;;;3.15;2.58;;;;;;;26.85;40.31;98603.12;7156729;40;20400;31
2023/07/23 15:27:52;;;;;;;2.60;2.40;;;;;;;26.80;40.12;98600.38;7197035;40;20266;31
2023/07/23 15:38:28;;;;;;;3.36;2.48;;;;;;;26.96;38.40;98590.03;7265136;39;20260;31
2023/07/23 15:49:05;;;;;;;4.80;2.90;;;;;;;27.05;38.10;98575.31;7278512;39;21360;31
2023/07/23 15:59:44;;;;;;;3.83;2.60;;;;;;;27.09;38.36;98584.69;7289352;39;20269;31
2023/07/23 16:05:17;;;;;;;5.25;3.05;;;;;;;27.08;38.69;98582.19;7236773;40;20420;31
2023/07/23 16:10:52;;;;;;;4.25;2.80;;;;;;;27.08;38.70;98579.44;7262346;40;20260;31
2023/07/23 16:16:24;;;;;;;4.00;2.90;;;;;;;26.99;38.10;98573.69;7314178;39;20263;31
2023/07/23 16:21:55;;;;;;;4.00;2.50;;;;;;;26.85;38.59;98575.47;7239626;40;20277;31
2023/07/23 16:27:13;;;;;;;3.25;2.85;;;;;;;26.81;38.17;98577.94;7222344;40;20379;31
2023/07/23 16:32:46;;;;;;;3.10;2.80;;;;;;;26.74;39.06;98571.91;7256603;40;20268;31
2023/07/23 16:38:23;;;;;;;3.00;2.70;;;;;;;26.70;38.58;98572.78;7223353;40;20314;31
2023/07/23 16:43:55;;;;;;;3.33;2.63;;;;;;;26.64;38.80;98566.44;7230996;40;20237;31
2023/07/23 16:49:15;;;;;;;3.08;2.78;;;;;;;26.61;38.97;98558.72;7243187;40;20276;31
2023/07/23 16:54:51;;;;;;;4.05;2.75;;;;;;;26.57;38.42;98562.34;7232978;40;20237;31
2023/07/23 17:00:25;;;;;;;3.60;2.70;;;;;;;26.56;38.80;98556.00;7196478;40;20512;31
2023/07/23 17:05:44;;;;;;;3.30;2.78;;;;;;;26.52;38.73;98548.56;7193341;40;20392;31
2023/07/23 17:11:28;;;;;;;3.33;3.03;;;;;;;26.38;38.18;98548.34;7245724;39;20349;31
2023/07/23 17:17:03;;;;;;;3.10;2.75;;;;;;;26.37;38.02;98538.44;7237566;40;20253;31
2023/07/23 17:22:35;;;;;;;3.95;2.78;;;;;;;26.40;37.51;98529.56;7188097;40;20257;31
2023/07/23 17:28:11;;;;;;;6.05;2.70;;;;;;;26.41;37.42;98528.44;7197251;40;20254;31
2023/07/23 17:33:46;;;;;;;3.53;2.78;;;;;;;26.47;37.44;98521.75;7164241;40;20285;31
2023/07/23 17:39:21;;;;;;;3.50;2.60;;;;;;;26.38;37.65;98527.06;7169345;40;20330;31
2023/07/23 17:44:54;;;;;;;2.87;2.58;;;;;;;26.32;37.97;98519.94;7158851;40;20361;31
2023/07/23 17:50:29;;;;;;;2.90;2.60;;;;;;;26.29;38.56;98517.72;7108646;41;20350;31
2023/07/23 17:56:02;;;;;;;3.50;2.70;;;;;;;26.22;38.53;98520.00;7146938;40;20317;31
2023/07/23 18:01:38;;;;;;;3.25;2.60;;;;;;;26.18;38.84;98518.03;7195698;40;21742;31
2023/07/23 18:07:10;;;;;;;2.92;2.60;;;;;;;26.20;39.16;98510.28;7211753;40;20247;31
2023/07/23 18:12:28;;;;;;;3.33;2.73;;;;;;;26.14;38.83;98512.25;7234617;40;20253;31
2023/07/23 18:18:00;;;;;;;3.37;2.80;;;;;;;26.11;39.50;98498.19;7254396;40;20419;31
2023/07/23 18:28:22;;;;;;;3.80;2.80;;;;;;;26.07;38.79;98497.09;7215235;40;21213;31
2023/07/23 18:38:59;;;;;;;3.22;2.85;;;;;;;26.00;39.57;98481.66;7218403;40;20501;31
2023/07/23 18:49:35;;;;;;;3.20;2.50;;;;;;;25.96;40.16;98485.28;7292034;40;21262;31
2023/07/23 19:00:12;;;;;;;3.37;2.90;;;;;;;25.85;40.19;98472.62;7262351;40;21722;31
2023/07/23 19:10:34;;;;;;;3.40;2.60;;;;;;;25.74;41.64;98471.84;7233343;40;21182;31
2023/07/23 19:16:09;;;;;;;3.12;2.80;;;;;;;25.66;41.85;98472.44;7255418;40;20324;31
2023/07/23 19:21:30;;;;;;;3.73;3.00;;;;;;;25.53;41.99;98464.72;7201998;40;20335;31
2023/07/23 19:32:07;;;;;;;4.90;3.10;;;;;;;25.12;43.84;98475.88;7199264;40;21158;31
2023/07/23 19:37:28;;;;;;;5.20;3.10;;;;;;;24.96;44.42;98477.00;7177133;40;20243;31
2023/07/23 19:42:49;;;;;;;3.80;2.85;;;;;;;24.81;44.87;98485.22;7207968;40;20252;31
2023/07/23 19:48:25;;;;;;;3.92;2.90;;;;;;;24.58;45.58;98480.25;7234186;40;20250;31
2023/07/23 19:53:42;;;;;;;3.15;2.85;;;;;;;24.47;46.53;98476.69;7231121;40;20315;31
2023/07/23 19:59:03;;;;;;;3.90;2.90;;;;;;;24.32;45.76;98473.06;7244457;40;20261;31
2023/07/23 20:04:38;;;;;;;4.27;3.30;;;;;;;24.18;46.30;98476.34;7295707;39;20515;31
2023/07/23 20:10:13;;;;;;;5.07;3.33;;;;;;;24.12;47.66;98479.34;7269458;40;20250;31
2023/07/23 20:15:33;;;;;;;3.75;2.70;;;;;;;23.99;48.92;98469.66;7214104;40;20348;31
2023/07/23 20:21:09;;;;;;;5.45;3.15;;;;;;;23.72;49.00;98474.53;7253548;40;20323;31
2023/07/23 20:26:44;;;;;;;3.30;3.00;;;;;;;23.80;48.57;98468.50;7234242;40;20485;31
2023/07/23 20:32:20;;;;;;;3.60;2.95;;;;;;;23.75;48.11;98471.22;7203838;40;20356;31
2023/07/23 20:37:57;;;;;;;4.15;3.20;;;;;;;23.64;48.15;98459.38;7037006;40;20683;31
2023/07/23 20:43:32;;;;;;;4.55;2.80;;;;;;;23.51;47.96;98457.12;7167154;40;20408;31
2023/07/23 20:49:07;;;;;;;4.65;2.97;;;;;;;23.45;48.75;98460.09;7135994;40;20246;31
2023/07/23 20:54:40;;;;;;;4.20;3.53;;;;;;;23.33;49.27;98465.78;7170691;40;20278;31
2023/07/23 21:05:02;;;;;;;3.60;3.03;;;;;;;23.18;48.81;98452.78;7257391;40;21248;31
2023/07/23 21:10:38;;;;;;;4.60;2.90;;;;;;;23.14;49.69;98443.41;7228601;40;20249;31
2023/07/23 21:15:58;;;;;;;4.55;3.08;;;;;;;23.10;49.72;98430.44;7240692;39;20245;31
2023/07/23 21:21:15;;;;;;;3.86;3.20;;;;;;;22.98;50.35;98440.81;7296505;39;20267;31
2023/07/23 21:26:51;;;;;;;4.15;3.05;;;;;;;22.88;49.92;98438.84;7284816;39;20263;31
2023/07/23 21:32:26;;;;;;;3.37;3.08;;;;;;;22.89;50.19;98432.25;7286128;39;20311;31
2023/07/23 21:38:01;;;;;;;3.34;2.98;;;;;;;22.95;50.13;98428.41;7254619;40;20253;31
2023/07/23 21:43:37;;;;;;;4.22;3.50;;;;;;;22.96;49.40;98426.50;7252433;40;20245;31
2023/07/23 21:48:57;;;;;;;3.35;3.05;;;;;;;22.88;49.69;98416.84;7217137;40;20268;31
2023/07/23 21:54:14;;;;;;;4.57;2.97;;;;;;;22.62;51.79;98414.97;7218708;40;20270;31
2023/07/23 21:59:50;;;;;;;5.05;3.03;;;;;;;22.53;52.00;98428.38;7227519;40;20540;31
2023/07/23 22:05:23;;;;;;;4.43;2.90;;;;;;;22.62;51.51;98439.72;7249088;40;20281;31
2023/07/23 22:10:40;;;;;;;4.20;3.40;;;;;;;22.54;51.90;98448.44;7280214;40;20272;31
2023/07/23 22:16:13;;;;;;;4.90;3.15;;;;;;;22.30;52.57;98445.19;7273009;40;20272;31
2023/07/23 22:21:45;;;;;;;5.00;3.70;;;;;;;22.14;53.22;98433.25;7207216;40;20297;31
2023/07/23 22:27:05;;;;;;;4.80;4.10;;;;;;;22.15;52.77;98432.16;7232578;40;20258;31
2023/07/23 22:32:41;;;;;;;4.28;3.83;;;;;;;22.17;52.11;98432.72;7220852;40;20242;31
2023/07/23 22:37:59;;;;;;;3.93;3.40;;;;;;;22.16;52.52;98438.50;7228573;40;20342;31
2023/07/23 22:43:16;;;;;;;3.72;3.33;;;;;;;22.06;52.63;98435.62;7237963;40;20297;31
2023/07/23 22:53:54;;;;;;;4.12;3.55;;;;;;;21.89;53.78;98420.06;7274828;40;21060;31
2023/07/23 22:59:14;;;;;;;4.57;3.08;;;;;;;21.84;53.58;98411.78;7238940;40;20286;31
2023/07/23 23:04:34;;;;;;;3.93;3.53;;;;;;;21.88;53.43;98412.09;7251684;40;20350;31
2023/07/23 23:10:07;;;;;;;4.05;3.62;;;;;;;21.85;53.49;98404.38;7213828;40;20548;31
2023/07/23 23:20:46;;;;;;;4.75;3.45;;;;;;;21.80;53.92;98409.81;7237387;40;20277;31
2023/07/23 23:31:23;;;;;;;6.00;3.83;;;;;;;21.97;52.94;98394.94;7264483;40;21367;31
2023/07/23 23:41:47;;;;;;;4.82;3.70;;;;;;;21.86;53.93;98384.06;7280981;40;21207;31
2023/07/23 23:52:24;;;;;;;4.53;3.85;;;;;;;21.54;54.71;98392.25;7284410;39;20268;31
